createdAt,value
2023-01-28T00:01:38.393Z,1.20
2023-01-28T00:03:58.903Z,1.20
2023-01-28T00:06:09.871Z,1.20
2023-01-28T00:08:13.600Z,1.20
2023-01-28T00:10:15.724Z,1.20
2023-01-28T00:12:17.578Z,1.20
2023-01-28T00:14:19.921Z,1.30
2023-01-28T00:16:22.728Z,1.30
2023-01-28T00:18:25.302Z,1.30
2023-01-28T00:20:26.896Z,1.30
2023-01-28T00:22:28.600Z,1.20
2023-01-28T00:24:30.741Z,1.30
2023-01-28T00:26:32.473Z,1.20
2023-01-28T00:28:34.363Z,1.20
2023-01-28T00:30:37.123Z,1.20
2023-01-28T00:32:57.657Z,1.20
2023-01-28T00:34:59.534Z,1.30
2023-01-28T00:37:01.235Z,1.30
2023-01-28T00:39:21.896Z,1.30
2023-01-28T00:41:42.378Z,1.30
2023-01-28T00:44:04.579Z,1.30
2023-01-28T00:46:27.405Z,1.30
2023-01-28T00:48:49.805Z,1.30
2023-01-28T00:51:14.581Z,1.30
2023-01-28T00:53:38.311Z,1.20
2023-01-28T00:56:01.005Z,1.30
2023-01-28T00:58:24.324Z,1.30
2023-01-28T01:00:46.862Z,1.30
2023-01-28T01:02:48.661Z,1.20
2023-01-28T01:04:59.435Z,1.30
2023-01-28T01:07:01.118Z,1.30
2023-01-28T01:09:07.380Z,1.30
2023-01-28T01:11:12.431Z,1.30
2023-01-28T01:16:42.903Z,1.30
2023-01-28T01:19:05.081Z,1.30
2023-01-28T01:21:29.068Z,1.30
2023-01-28T01:23:52.116Z,1.30
2023-01-28T01:26:14.567Z,1.30
2023-01-28T01:28:37.338Z,1.20
2023-01-28T01:31:01.429Z,1.30
2023-01-28T01:33:23.566Z,1.20
2023-01-28T01:35:52.999Z,1.20
2023-01-28T01:38:15.531Z,1.20
2023-01-28T01:40:37.750Z,1.30
2023-01-28T01:42:59.771Z,1.30
2023-01-28T01:45:21.951Z,1.20
2023-01-28T01:47:49.164Z,1.20
2023-01-28T01:50:23.356Z,1.20
2023-01-28T01:52:47.140Z,1.20
2023-01-28T01:55:14.372Z,1.20
2023-01-28T01:57:37.453Z,1.30
2023-01-28T02:00:06.172Z,1.20
2023-01-28T02:02:28.549Z,1.30
2023-01-28T02:04:50.842Z,1.30
2023-01-28T02:07:16.170Z,1.30
2023-01-28T02:09:41.452Z,1.20
2023-01-28T02:12:11.628Z,1.20
2023-01-28T02:14:36.808Z,1.20
2023-01-28T02:17:01.408Z,1.20
2023-01-28T02:19:32.282Z,1.30
2023-01-28T02:22:05.636Z,1.20
2023-01-28T02:24:33.276Z,1.30
2023-01-28T02:27:14.344Z,1.20
2023-01-28T02:29:52.418Z,1.20
2023-01-28T02:32:17.436Z,1.20
2023-01-28T02:34:42.185Z,1.20
2023-01-28T02:37:22.872Z,1.20
2023-01-28T02:40:11.250Z,1.20
2023-01-28T02:42:37.014Z,1.20
2023-01-28T02:44:59.067Z,1.20
2023-01-28T02:47:39.846Z,1.20
2023-01-28T02:50:05.708Z,1.20
2023-01-28T02:53:12.201Z,1.20
2023-01-28T02:55:56.541Z,1.10
2023-01-28T02:58:34.185Z,1.10
2023-01-28T03:01:07.337Z,1.10
2023-01-28T03:03:56.087Z,1.10
2023-01-28T03:06:23.741Z,1.10
2023-01-28T03:09:10.011Z,1.10
2023-01-28T03:11:56.473Z,1.20
2023-01-28T03:14:38.196Z,1.20
2023-01-28T03:17:20.849Z,1.20
2023-01-28T03:20:01.616Z,1.20
2023-01-28T03:22:45.709Z,1.20
2023-01-28T03:25:30.093Z,1.30
2023-01-28T03:28:18.894Z,1.30
2023-01-28T03:31:32.494Z,1.30
2023-01-28T03:34:15.256Z,1.30
2023-01-28T03:36:50.008Z,1.30
2023-01-28T03:39:12.082Z,1.30
2023-01-28T03:41:34.131Z,1.30
2023-01-28T03:44:14.640Z,1.30
2023-01-28T03:46:39.415Z,1.30
2023-01-28T03:49:01.541Z,1.30
2023-01-28T03:51:23.518Z,1.30
2023-01-28T03:53:45.493Z,1.30
2023-01-28T03:56:08.847Z,1.30
2023-01-28T03:58:49.432Z,1.30
2023-01-28T04:01:11.535Z,1.30
2023-01-28T04:03:33.587Z,1.30
2023-01-28T04:06:07.751Z,1.30
2023-01-28T04:08:29.954Z,1.30
2023-01-28T04:10:52.045Z,1.30
2023-01-28T04:13:14.064Z,1.30
2023-01-28T04:15:36.604Z,1.30
2023-01-28T04:17:58.685Z,1.30
2023-01-28T04:20:20.652Z,1.30
2023-01-28T04:22:43.388Z,1.30
2023-01-28T04:25:05.836Z,1.30
2023-01-28T04:27:27.825Z,1.30
2023-01-28T04:29:49.851Z,1.30
2023-01-28T04:32:11.889Z,1.40
2023-01-28T04:34:33.877Z,1.40
2023-01-28T04:36:55.932Z,1.40
2023-01-28T04:39:17.927Z,1.40
2023-01-28T04:41:39.968Z,1.40
2023-01-28T04:44:02.297Z,1.40
2023-01-28T04:46:24.516Z,1.30
2023-01-28T04:48:46.592Z,1.30
2023-01-28T04:51:08.874Z,1.30
2023-01-28T04:53:31.188Z,1.30
2023-01-28T04:55:53.194Z,1.40
2023-01-28T04:58:15.170Z,1.40
2023-01-28T05:00:37.215Z,1.30
2023-01-28T05:02:59.308Z,1.30
2023-01-28T05:05:21.336Z,1.20
2023-01-28T05:07:43.366Z,1.20
2023-01-28T05:10:06.348Z,1.30
2023-01-28T05:12:28.268Z,1.30
2023-01-28T05:14:50.267Z,1.30
2023-01-28T05:17:12.279Z,1.30
2023-01-28T05:19:34.338Z,1.30
2023-01-28T05:21:56.383Z,1.30
2023-01-28T05:24:18.425Z,1.40
2023-01-28T05:26:40.412Z,1.40
2023-01-28T05:29:02.714Z,1.30
2023-01-28T05:31:24.939Z,1.40
2023-01-28T05:33:46.948Z,1.30
2023-01-28T05:36:09.094Z,1.30
2023-01-28T05:38:31.071Z,1.30
2023-01-28T05:40:53.199Z,1.30
2023-01-28T05:43:15.685Z,1.30
2023-01-28T05:45:37.787Z,1.30
2023-01-28T05:47:59.885Z,1.30
2023-01-28T05:50:21.928Z,1.30
2023-01-28T05:52:44.579Z,1.30
2023-01-28T05:55:07.717Z,1.30
2023-01-28T05:57:30.089Z,1.30
2023-01-28T05:59:52.204Z,1.30
2023-01-28T06:02:14.305Z,1.30
2023-01-28T06:04:36.357Z,1.30
2023-01-28T06:06:58.415Z,1.30
2023-01-28T06:09:20.476Z,1.30
2023-01-28T06:11:42.657Z,1.30
2023-01-28T06:14:04.764Z,1.30
2023-01-28T06:16:26.766Z,1.30
2023-01-28T06:18:48.838Z,1.30
2023-01-28T06:21:11.036Z,1.30
2023-01-28T06:23:33.227Z,1.30
2023-01-28T06:25:56.490Z,1.30
2023-01-28T06:28:18.467Z,1.30
2023-01-28T06:30:40.633Z,1.40
2023-01-28T06:33:02.642Z,1.30
2023-01-28T06:35:25.149Z,1.30
2023-01-28T06:37:47.159Z,1.30
2023-01-28T06:40:09.903Z,1.30
2023-01-28T06:42:31.903Z,1.40
2023-01-28T06:44:53.923Z,1.40
2023-01-28T06:47:16.032Z,1.40
2023-01-28T06:49:38.246Z,1.40
2023-01-28T06:52:00.295Z,1.40
2023-01-28T06:54:22.441Z,1.40
2023-01-28T06:56:44.555Z,1.40
2023-01-28T06:59:06.774Z,1.40
2023-01-28T07:01:28.805Z,1.40
2023-01-28T07:03:50.923Z,1.40
2023-01-28T07:06:13.073Z,1.40
2023-01-28T07:08:35.707Z,1.40
2023-01-28T07:10:57.743Z,1.40
2023-01-28T07:13:19.772Z,1.40
2023-01-28T07:15:41.991Z,1.40
2023-01-28T07:18:04.284Z,1.40
2023-01-28T07:20:26.667Z,1.40
2023-01-28T07:22:48.909Z,1.50
2023-01-28T07:25:12.067Z,1.50
2023-01-28T07:27:34.299Z,1.40
2023-01-28T07:29:56.335Z,1.50
2023-01-28T07:32:18.458Z,1.50
2023-01-28T07:34:43.048Z,1.50
2023-01-28T07:37:06.596Z,1.50
2023-01-28T07:39:28.627Z,1.50
2023-01-28T07:41:50.733Z,1.50
2023-01-28T07:44:12.887Z,1.50
2023-01-28T07:46:34.912Z,1.60
2023-01-28T07:48:56.940Z,1.60
2023-01-28T07:51:19.069Z,1.60
2023-01-28T07:53:41.509Z,1.60
2023-01-28T07:56:04.853Z,1.70
2023-01-28T07:58:27.247Z,1.70
2023-01-28T08:00:49.561Z,1.70
2023-01-28T08:03:17.976Z,1.80
2023-01-28T08:05:46.078Z,1.80
2023-01-28T08:08:10.109Z,1.90
2023-01-28T08:10:32.329Z,1.80
2023-01-28T08:13:00.641Z,1.80
2023-01-28T08:15:24.039Z,1.90
2023-01-28T08:17:46.178Z,1.90
2023-01-28T08:20:10.002Z,1.90
2023-01-28T08:22:32.191Z,1.90
2023-01-28T08:24:54.619Z,2.00
2023-01-28T08:27:16.721Z,1.90
2023-01-28T08:29:38.920Z,2.00
2023-01-28T08:32:01.159Z,2.10
2023-01-28T08:34:30.456Z,2.00
2023-01-28T08:36:55.661Z,2.20
2023-01-28T08:39:17.956Z,2.20
2023-01-28T08:41:40.158Z,2.10
2023-01-28T08:44:02.346Z,2.10
2023-01-28T08:46:24.543Z,2.10
2023-01-28T08:48:46.836Z,2.10
2023-01-28T08:51:09.399Z,2.20
2023-01-28T08:53:31.812Z,2.10
2023-01-28T08:55:54.170Z,2.20
2023-01-28T08:58:20.024Z,2.20
2023-01-28T09:00:44.013Z,2.20
2023-01-28T09:03:06.810Z,2.30
2023-01-28T09:05:30.179Z,2.40
2023-01-28T09:07:52.380Z,2.40
2023-01-28T09:10:16.816Z,2.50
2023-01-28T09:12:39.345Z,2.50
2023-01-28T09:15:01.768Z,2.60
2023-01-28T09:17:24.277Z,2.70
2023-01-28T09:19:46.385Z,2.80
2023-01-28T09:22:08.455Z,2.70
2023-01-28T09:24:30.599Z,2.90
2023-01-28T09:26:52.653Z,2.90
2023-01-28T09:29:14.798Z,3.00
2023-01-28T09:31:42.899Z,3.00
2023-01-28T09:34:05.211Z,3.20
2023-01-28T09:36:27.656Z,3.30
2023-01-28T09:38:50.097Z,3.30
2023-01-28T09:41:44.348Z,3.30
2023-01-28T09:44:24.669Z,3.30
2023-01-28T09:46:46.892Z,3.20
2023-01-28T09:49:25.723Z,3.30
2023-01-28T09:51:53.672Z,3.40
2023-01-28T09:54:38.510Z,3.10
2023-01-28T09:57:32.067Z,3.20
2023-01-28T09:59:54.121Z,3.40
2023-01-28T10:02:26.697Z,3.40
2023-01-28T10:04:58.653Z,3.40
2023-01-28T10:07:24.992Z,3.40
2023-01-28T10:10:03.792Z,3.40
2023-01-28T10:12:34.299Z,3.50
2023-01-28T10:15:05.262Z,3.40
2023-01-28T10:17:34.826Z,3.30
2023-01-28T10:20:05.787Z,3.10
2023-01-28T10:22:37.459Z,3.00
2023-01-28T10:25:06.760Z,3.00
2023-01-28T10:27:31.893Z,3.00
2023-01-28T10:29:55.509Z,3.10
2023-01-28T10:32:35.943Z,3.20
2023-01-28T10:35:03.092Z,3.20
2023-01-28T10:37:26.115Z,3.30
2023-01-28T10:39:48.334Z,3.20
2023-01-28T10:42:38.205Z,3.00
2023-01-28T10:45:08.843Z,3.20
2023-01-28T10:47:41.027Z,3.20
2023-01-28T10:50:05.084Z,3.20
2023-01-28T10:52:27.277Z,3.20
2023-01-28T10:55:00.271Z,3.10
2023-01-28T10:57:22.470Z,3.10
2023-01-28T10:59:45.532Z,3.20
2023-01-28T11:02:28.429Z,3.30
2023-01-28T11:05:17.127Z,3.30
2023-01-28T11:08:04.108Z,3.20
2023-01-28T11:10:47.411Z,3.20
2023-01-28T11:13:18.819Z,3.30
2023-01-28T11:15:58.447Z,3.10
2023-01-28T11:18:27.003Z,3.10
2023-01-28T11:20:59.216Z,3.20
2023-01-28T11:23:28.740Z,3.10
2023-01-28T11:26:05.625Z,3.20
2023-01-28T11:28:28.160Z,3.40
2023-01-28T11:30:53.075Z,3.40
2023-01-28T11:33:32.319Z,3.30
2023-01-28T11:36:12.657Z,3.30
2023-01-28T11:38:35.329Z,3.20
2023-01-28T11:41:03.599Z,3.10
2023-01-28T11:43:31.163Z,3.30
2023-01-28T11:46:05.049Z,3.30
2023-01-28T11:49:15.567Z,3.40
2023-01-28T11:51:54.784Z,3.30
2023-01-28T11:54:41.657Z,3.10
2023-01-28T11:57:28.063Z,3.10
2023-01-28T12:00:12.473Z,3.10
2023-01-28T12:02:48.863Z,3.20
2023-01-28T12:05:35.337Z,3.10
2023-01-28T12:08:24.958Z,3.00
2023-01-28T12:11:47.387Z,3.00
2023-01-28T12:14:46.556Z,2.90
2023-01-28T12:17:47.002Z,3.00
2023-01-28T12:20:20.969Z,3.20
2023-01-28T12:22:56.178Z,3.10
2023-01-28T12:26:03.486Z,3.30
2023-01-28T12:28:44.707Z,3.20
2023-01-28T12:31:48.422Z,3.10
2023-01-28T12:34:48.086Z,3.10
2023-01-28T12:37:15.673Z,3.10
2023-01-28T12:39:52.624Z,3.10
2023-01-28T12:42:45.137Z,3.30
2023-01-28T12:53:09.325Z,3.10
2023-01-28T12:55:42.020Z,3.00
2023-01-28T12:58:08.379Z,3.10
2023-01-28T13:00:48.895Z,3.10
2023-01-28T13:03:29.799Z,3.00
2023-01-28T13:06:02.878Z,3.00
2023-01-28T13:08:29.731Z,3.00
2023-01-28T13:11:18.877Z,3.00
2023-01-28T13:14:04.511Z,3.00
2023-01-28T13:16:52.404Z,2.90
2023-01-28T13:19:54.250Z,3.00
2023-01-28T13:26:15.960Z,3.10
2023-01-28T13:51:35.732Z,3.20
2023-01-28T13:54:02.931Z,3.20
2023-01-28T13:56:42.534Z,3.10
2023-01-28T13:59:36.281Z,3.30
2023-01-28T14:02:36.044Z,3.20
2023-01-28T14:05:36.448Z,2.90
2023-01-28T14:08:19.805Z,2.90
2023-01-28T14:11:05.947Z,2.90
2023-01-28T14:13:52.681Z,2.80
2023-01-28T14:16:36.430Z,2.90
2023-01-28T14:19:01.851Z,2.80
2023-01-28T14:21:28.103Z,2.80
2023-01-28T14:23:53.130Z,2.80
2023-01-28T14:26:36.275Z,2.80
2023-01-28T14:29:18.490Z,2.80
2023-01-28T14:31:40.902Z,2.90
2023-01-28T14:34:21.157Z,2.80
2023-01-28T14:36:45.299Z,3.00
2023-01-28T14:39:17.070Z,3.00
2023-01-28T14:41:40.084Z,3.10
2023-01-28T14:44:02.066Z,3.20
2023-01-28T14:46:36.157Z,3.20
2023-01-28T14:49:19.847Z,3.10
2023-01-28T14:51:59.900Z,3.00
2023-01-28T14:54:39.419Z,3.00
2023-01-28T14:57:16.530Z,2.90
2023-01-28T14:59:58.184Z,3.00
2023-01-28T15:02:26.342Z,2.90
2023-01-28T15:04:49.495Z,3.00
2023-01-28T15:07:17.685Z,2.90
2023-01-28T15:09:39.763Z,3.00
2023-01-28T15:12:04.009Z,3.00
2023-01-28T15:14:29.577Z,3.00
2023-01-28T15:16:51.933Z,2.90
2023-01-28T15:19:14.872Z,2.90
2023-01-28T15:21:38.479Z,2.90
2023-01-28T15:24:03.097Z,2.90
2023-01-28T15:26:28.425Z,2.90
2023-01-28T15:28:52.117Z,2.90
2023-01-28T15:31:33.276Z,3.00
2023-01-28T15:34:11.064Z,2.90
2023-01-28T15:36:33.133Z,3.00
2023-01-28T15:38:56.432Z,3.00
2023-01-28T15:41:22.810Z,2.90
2023-01-28T15:43:49.114Z,2.90
2023-01-28T15:46:15.330Z,2.90
2023-01-28T15:48:41.836Z,2.90
2023-01-28T15:51:17.311Z,2.90
2023-01-28T15:53:47.456Z,3.00
2023-01-28T15:56:12.153Z,2.90
2023-01-28T15:58:37.135Z,2.90
2023-01-28T16:01:20.203Z,2.90
2023-01-28T16:03:44.657Z,2.90
2023-01-28T16:06:12.916Z,2.90
2023-01-28T16:08:39.358Z,2.80
2023-01-28T16:11:01.856Z,2.80
2023-01-28T16:13:27.194Z,2.80
2023-01-28T16:15:53.257Z,2.80
2023-01-28T16:18:37.258Z,2.70
2023-01-28T16:21:00.313Z,2.70
2023-01-28T16:23:24.354Z,2.60
2023-01-28T16:25:46.448Z,2.60
2023-01-28T16:28:19.731Z,2.70
2023-01-28T16:30:41.683Z,2.60
2023-01-28T16:33:03.911Z,2.50
2023-01-28T16:35:47.257Z,2.50
2023-01-28T16:38:16.928Z,2.50
2023-01-28T16:40:39.141Z,2.60
2023-01-28T16:43:01.292Z,2.60
2023-01-28T16:45:25.070Z,2.60
2023-01-28T16:47:47.105Z,2.60
2023-01-28T16:50:13.728Z,2.60
2023-01-28T16:52:35.770Z,2.50
2023-01-28T16:54:57.878Z,2.60
2023-01-28T16:57:21.261Z,2.60
2023-01-28T16:59:43.370Z,2.60
2023-01-28T17:02:05.538Z,2.50
2023-01-28T17:04:27.610Z,2.50
2023-01-28T17:06:49.751Z,2.50
2023-01-28T17:09:13.566Z,2.50
2023-01-28T17:11:35.952Z,2.50
2023-01-28T17:13:58.220Z,2.50
2023-01-28T17:16:20.464Z,2.50
2023-01-28T17:18:42.573Z,2.50
2023-01-28T17:21:06.948Z,2.50
2023-01-28T17:23:29.061Z,2.50
2023-01-28T17:25:51.316Z,2.50
2023-01-28T17:28:13.377Z,2.50
2023-01-28T17:30:39.681Z,2.40
2023-01-28T17:33:02.374Z,2.40
2023-01-28T17:35:24.405Z,2.40
2023-01-28T17:37:46.702Z,2.40
2023-01-28T17:40:12.244Z,2.40
2023-01-28T17:42:34.330Z,2.30
2023-01-28T17:44:57.378Z,2.30
2023-01-28T17:47:19.465Z,2.30
2023-01-28T17:49:41.461Z,2.20
2023-01-28T17:52:04.667Z,2.20
2023-01-28T17:54:26.894Z,2.20
2023-01-28T17:56:48.953Z,2.10
2023-01-28T17:59:11.641Z,2.10
2023-01-28T18:01:35.697Z,2.00
2023-01-28T18:03:58.868Z,2.10
2023-01-28T18:06:21.732Z,2.10
2023-01-28T18:08:44.427Z,2.10
2023-01-28T18:11:08.971Z,2.10
2023-01-28T18:13:31.003Z,2.10
2023-01-28T18:15:53.042Z,2.20
2023-01-28T18:18:15.184Z,2.30
2023-01-28T18:20:37.433Z,2.10
2023-01-28T18:22:59.472Z,2.00
2023-01-28T18:25:21.703Z,1.90
2023-01-28T18:27:44.091Z,2.00
2023-01-28T18:30:06.571Z,2.00
2023-01-28T18:32:28.583Z,1.90
2023-01-28T18:34:50.685Z,1.80
2023-01-28T18:37:12.697Z,1.70
2023-01-28T18:39:37.976Z,1.60
2023-01-28T18:42:00.464Z,1.50
2023-01-28T18:44:24.231Z,1.30
2023-01-28T18:46:46.357Z,1.30
2023-01-28T18:49:08.614Z,1.20
2023-01-28T18:51:31.185Z,1.10
2023-01-28T18:53:56.286Z,1.10
2023-01-28T18:56:18.304Z,1.10
2023-01-28T18:58:40.379Z,1.00
2023-01-28T19:01:07.715Z,1.00
2023-01-28T19:03:30.624Z,1.10
2023-01-28T19:05:52.757Z,1.00
2023-01-28T19:08:14.944Z,1.00
2023-01-28T19:10:37.297Z,1.00
2023-01-28T19:12:59.372Z,1.10
2023-01-28T19:15:22.288Z,1.10
2023-01-28T19:17:44.332Z,1.20
2023-01-28T19:20:06.998Z,1.30
2023-01-28T19:22:29.273Z,1.50
2023-01-28T19:24:51.316Z,1.60
2023-01-28T19:27:13.411Z,1.70
2023-01-28T19:29:35.778Z,1.70
2023-01-28T19:31:57.894Z,1.70
2023-01-28T19:34:20.018Z,1.70
2023-01-28T19:36:42.547Z,1.70
2023-01-28T19:39:07.029Z,1.70
2023-01-28T19:41:29.868Z,1.70
2023-01-28T19:43:51.962Z,1.80
2023-01-28T19:46:16.152Z,1.80
2023-01-28T19:48:38.299Z,1.70
2023-01-28T19:51:11.332Z,1.70
2023-01-28T19:53:35.217Z,1.70
2023-01-28T19:55:57.366Z,1.70
2023-01-28T19:58:19.536Z,1.70
2023-01-28T20:00:41.978Z,1.80
2023-01-28T20:03:07.795Z,1.80
2023-01-28T20:05:30.586Z,1.90
2023-01-28T20:07:52.741Z,1.90
2023-01-28T20:10:15.668Z,1.90
2023-01-28T20:12:37.718Z,1.90
2023-01-28T20:15:00.888Z,1.90
2023-01-28T20:17:22.950Z,1.90
2023-01-28T20:19:45.051Z,1.90
2023-01-28T20:22:09.724Z,1.90
2023-01-28T20:24:32.219Z,1.90
2023-01-28T20:26:56.906Z,1.90
2023-01-28T20:29:21.075Z,1.90
2023-01-28T20:32:00.263Z,1.90
2023-01-28T20:34:30.008Z,1.90
2023-01-28T20:36:56.265Z,1.90
2023-01-28T20:39:24.539Z,1.90
2023-01-28T20:41:48.334Z,1.90
2023-01-28T20:44:11.270Z,1.90
2023-01-28T20:46:37.452Z,1.90
2023-01-28T20:49:07.662Z,1.90
2023-01-28T20:51:35.532Z,1.90
2023-01-28T20:54:00.835Z,1.90
2023-01-28T20:56:28.828Z,1.90
2023-01-28T20:59:10.800Z,1.90
2023-01-28T21:01:35.515Z,1.90
2023-01-28T21:03:57.902Z,1.90
2023-01-28T21:06:20.404Z,1.90
2023-01-28T21:08:43.072Z,1.90
2023-01-28T21:11:07.485Z,1.90
2023-01-28T21:13:29.621Z,1.90
2023-01-28T21:15:56.389Z,1.90
2023-01-28T21:18:18.768Z,1.90
2023-01-28T21:20:40.799Z,1.90
2023-01-28T21:23:03.384Z,1.90
2023-01-28T21:25:26.724Z,1.80
2023-01-28T21:27:50.092Z,1.80
2023-01-28T21:30:12.923Z,1.80
2023-01-28T21:32:35.096Z,1.90
2023-01-28T21:34:57.371Z,1.90
2023-01-28T21:37:22.442Z,1.80
2023-01-28T21:39:44.589Z,1.80
2023-01-28T21:42:06.704Z,1.80
2023-01-28T21:44:30.634Z,1.80
2023-01-28T21:46:53.141Z,1.70
2023-01-28T21:49:15.436Z,1.70
2023-01-28T21:51:47.089Z,1.70
2023-01-28T21:54:17.619Z,1.70
2023-01-28T21:56:40.042Z,1.70
2023-01-28T21:59:24.083Z,1.70
2023-01-28T22:01:46.497Z,1.70
2023-01-28T22:04:11.814Z,1.70
2023-01-28T22:06:34.032Z,1.80
2023-01-28T22:08:56.383Z,1.80
2023-01-28T22:11:18.956Z,1.80
2023-01-28T22:13:42.612Z,1.70
2023-01-28T22:16:07.255Z,1.70
2023-01-28T22:18:32.715Z,1.70
2023-01-28T22:21:03.153Z,1.60
2023-01-28T22:23:25.485Z,1.60
2023-01-28T22:25:47.739Z,1.60
2023-01-28T22:28:10.077Z,1.60
2023-01-28T22:30:35.245Z,1.60
2023-01-28T22:32:37.520Z,1.60
2023-01-28T22:34:39.367Z,1.60
2023-01-28T22:36:41.242Z,1.60
2023-01-28T22:38:44.960Z,1.60
2023-01-28T22:40:46.680Z,1.80
2023-01-28T22:42:48.349Z,2.00
2023-01-28T22:44:49.992Z,1.80
2023-01-28T22:46:52.055Z,1.70
2023-01-28T22:48:54.091Z,1.60
2023-01-28T22:51:05.260Z,1.60
2023-01-28T22:53:07.190Z,1.50
2023-01-28T22:55:27.270Z,1.50
2023-01-28T22:57:29.122Z,1.40
2023-01-28T22:59:32.899Z,1.40
2023-01-28T23:01:35.789Z,1.40
2023-01-28T23:03:37.753Z,1.50
2023-01-28T23:05:39.834Z,1.50
2023-01-28T23:07:41.634Z,1.50
2023-01-28T23:09:46.215Z,1.50
2023-01-28T23:11:48.096Z,1.40
2023-01-28T23:14:28.271Z,1.40
2023-01-28T23:16:49.463Z,1.40
2023-01-28T23:19:10.101Z,1.40
2023-01-28T23:21:38.676Z,1.40
2023-01-28T23:23:59.325Z,1.40
2023-01-28T23:26:01.219Z,1.40
2023-01-28T23:28:02.925Z,1.50
2023-01-28T23:30:09.796Z,1.40
2023-01-28T23:32:11.667Z,1.40
2023-01-28T23:34:16.140Z,1.40
2023-01-28T23:36:18.813Z,1.40
2023-01-28T23:38:20.766Z,1.30
2023-01-28T23:40:24.550Z,1.30
2023-01-28T23:42:49.540Z,1.30
2023-01-28T23:45:11.021Z,1.30
2023-01-28T23:47:12.873Z,1.30
2023-01-28T23:49:14.713Z,1.40
2023-01-28T23:51:16.473Z,1.30
2023-01-28T23:53:18.156Z,1.30
2023-01-28T23:55:20.096Z,1.30
2023-01-28T23:57:21.961Z,1.20
2023-01-28T23:59:24.713Z,1.30
